Time;durP1;ratioP1;P1;durP2;ratioP2;P2;SDS_P1;SDS_P2;PMS_P1;PMS_P2;Temp;Humidity;BMP_temperature;BMP_pressure;BME280_temperature;BME280_humidity;BME280_pressure;Samples;Min_cycle;Max_cycle;Signal;HPM_P1;HPM_P2
2023/04/08 00:00:19;;;;;;;4.75;2.90;;;;;;;19.83;44.29;96839.50;10323615;28;20042;-73
2023/04/08 00:05:51;;;;;;;4.72;2.60;;;;;;;19.82;44.19;96843.34;10338932;28;20125;-77
2023/04/08 00:11:11;;;;;;;5.18;2.83;;;;;;;19.79;44.29;96835.88;10323227;28;20096;-73
2023/04/08 00:16:30;;;;;;;3.65;2.55;;;;;;;19.79;44.18;96839.38;10350247;28;20089;-73
2023/04/08 00:21:50;;;;;;;4.82;2.90;;;;;;;19.79;44.30;96838.56;10322753;28;20046;-73
2023/04/08 00:27:09;;;;;;;4.50;2.65;;;;;;;19.77;44.12;96841.59;10347197;28;20062;-73
2023/04/08 00:32:29;;;;;;;4.70;2.38;;;;;;;19.76;44.10;96837.31;10336437;28;20046;-73
2023/04/08 00:37:49;;;;;;;4.93;2.88;;;;;;;19.75;44.28;96841.13;10322099;28;20053;-73
2023/04/08 00:43:08;;;;;;;4.43;2.60;;;;;;;19.72;44.15;96839.88;10322497;28;20042;-73
2023/04/08 00:48:28;;;;;;;3.65;2.42;;;;;;;19.72;44.18;96839.09;10322000;28;20045;-73
2023/04/08 00:53:48;;;;;;;4.35;2.65;;;;;;;19.70;44.23;96841.28;10335224;28;20042;-73
2023/04/08 00:59:08;;;;;;;4.53;2.90;;;;;;;19.70;44.04;96855.59;10335087;28;20512;-73
2023/04/08 01:04:33;;;;;;;3.33;2.47;;;;;;;19.68;44.01;96838.91;10349605;28;20101;-73
2023/04/08 01:09:59;;;;;;;4.15;2.60;;;;;;;19.68;44.02;96838.09;10334565;28;20414;-73
2023/04/08 01:15:19;;;;;;;3.17;2.03;;;;;;;19.66;44.03;96830.34;10348866;28;20049;-73
2023/04/08 01:20:41;;;;;;;4.50;2.40;;;;;;;19.66;44.07;96835.75;10334152;28;20042;-73
2023/04/08 01:26:01;;;;;;;3.28;2.25;;;;;;;19.64;43.98;96835.28;10333087;28;20522;-73
2023/04/08 01:31:21;;;;;;;4.45;2.50;;;;;;;19.63;43.97;96832.88;10306314;28;20042;-73
2023/04/08 01:36:43;;;;;;;3.53;2.28;;;;;;;19.62;43.97;96828.59;10320161;28;20043;-73
2023/04/08 01:42:03;;;;;;;3.03;2.03;;;;;;;19.61;44.03;96827.81;10333187;28;20042;-73
2023/04/08 01:47:22;;;;;;;3.40;2.40;;;;;;;19.59;43.92;96840.06;10319393;28;20048;-73
2023/04/08 01:52:44;;;;;;;4.10;2.20;;;;;;;19.59;43.98;96840.84;10319273;28;20046;-73
2023/04/08 01:58:06;;;;;;;3.70;2.30;;;;;;;19.56;44.01;96838.78;10319368;28;20104;-73
2023/04/08 02:03:27;;;;;;;2.90;2.00;;;;;;;19.55;43.90;96826.41;10318972;28;20042;-73
2023/04/08 02:08:47;;;;;;;3.33;2.33;;;;;;;19.54;43.87;96833.72;10318992;28;20045;-73
2023/04/08 02:14:06;;;;;;;2.60;2.20;;;;;;;19.52;43.84;96841.34;10305866;28;20053;-73
2023/04/08 02:19:35;;;;;;;2.90;2.33;;;;;;;19.51;43.80;96839.75;10346907;28;20494;-73
2023/04/08 02:24:55;;;;;;;3.50;2.13;;;;;;;19.49;43.81;96841.97;10332137;28;20046;-73
2023/04/08 02:30:15;;;;;;;2.33;2.05;;;;;;;19.49;43.81;96831.19;10305867;28;20534;-73
2023/04/08 02:35:35;;;;;;;3.05;2.47;;;;;;;19.46;43.85;96837.22;10331820;28;20099;-73
2023/04/08 02:40:55;;;;;;;3.72;2.00;;;;;;;19.45;43.79;96830.25;10348618;28;20053;-73
2023/04/08 02:46:14;;;;;;;2.60;2.08;;;;;;;19.44;43.87;96842.16;10313054;28;20042;-73
2023/04/08 02:51:34;;;;;;;2.83;1.90;;;;;;;19.43;43.60;96843.28;10326353;28;20050;-73
2023/04/08 02:56:53;;;;;;;2.78;2.15;;;;;;;19.41;43.79;96853.63;10326063;28;20046;-73
2023/04/08 03:02:13;;;;;;;2.10;1.80;;;;;;;19.42;43.76;96857.09;10325740;28;20379;-73
2023/04/08 03:07:33;;;;;;;2.90;2.28;;;;;;;19.40;43.73;96860.13;10339197;28;20039;-73
2023/04/08 03:12:52;;;;;;;3.05;2.05;;;;;;;19.38;43.72;96858.84;10339100;28;20050;-73
2023/04/08 03:18:12;;;;;;;2.20;1.77;;;;;;;19.39;43.55;96855.84;10325223;28;20038;-73
2023/04/08 03:23:31;;;;;;;2.28;1.85;;;;;;;19.36;43.74;96857.25;10338523;28;20038;-73
2023/04/08 03:28:51;;;;;;;2.10;1.70;;;;;;;19.34;43.73;96851.38;10329767;28;20178;-73
2023/04/08 03:34:10;;;;;;;2.95;1.85;;;;;;;19.34;43.80;96854.09;10353017;28;20046;-73
2023/04/08 03:39:30;;;;;;;2.70;2.03;;;;;;;19.33;43.74;96857.13;10324248;28;20043;-73
2023/04/08 03:44:50;;;;;;;1.80;1.52;;;;;;;19.31;43.60;96859.34;10324702;28;20043;-72
2023/04/08 03:50:10;;;;;;;2.67;2.10;;;;;;;19.30;43.65;96855.06;10337741;28;20049;-72
2023/04/08 03:55:29;;;;;;;2.05;1.70;;;;;;;19.30;43.83;96872.06;10337467;28;20050;-73
2023/04/08 04:00:49;;;;;;;2.00;1.77;;;;;;;19.28;43.61;96874.28;10337905;28;20050;-73
2023/04/08 04:06:09;;;;;;;3.88;2.00;;;;;;;19.26;43.56;96876.50;10336994;28;20108;-73
2023/04/08 04:11:28;;;;;;;3.60;1.90;;;;;;;19.26;43.68;96873.03;10337027;28;20409;-73
2023/04/08 04:16:47;;;;;;;3.00;2.10;;;;;;;19.24;43.69;96881.44;10336754;28;20042;-73
2023/04/08 04:22:07;;;;;;;1.95;1.70;;;;;;;19.24;43.79;96891.47;10322446;28;20042;-73
2023/04/08 04:27:26;;;;;;;2.80;1.80;;;;;;;19.23;43.55;96893.38;10346279;28;20057;-72
2023/04/08 04:32:45;;;;;;;2.03;1.67;;;;;;;19.21;43.64;96901.00;10336367;28;20054;-72
2023/04/08 04:38:11;;;;;;;1.98;1.70;;;;;;;19.20;43.55;96904.00;10322515;28;20483;-73
2023/04/08 04:43:30;;;;;;;1.98;1.50;;;;;;;19.19;43.56;96910.50;10336352;28;20049;-73
2023/04/08 04:48:50;;;;;;;1.95;1.60;;;;;;;19.17;43.56;96908.94;10350371;28;20499;-73
2023/04/08 04:54:09;;;;;;;1.75;1.50;;;;;;;19.15;43.71;96913.88;10339448;28;20053;-73
2023/04/08 04:59:29;;;;;;;1.60;1.50;;;;;;;19.15;43.59;96921.97;10353183;28;20049;-73
2023/04/08 05:04:49;;;;;;;1.77;1.58;;;;;;;19.13;43.62;96920.69;10339950;28;20387;-73
2023/04/08 05:10:09;;;;;;;2.35;1.50;;;;;;;19.12;43.75;96930.69;10358318;28;20034;-72
2023/04/08 05:15:29;;;;;;;1.73;1.60;;;;;;;19.12;43.80;96927.22;10381349;28;20045;-73
2023/04/08 05:20:48;;;;;;;2.15;1.48;;;;;;;19.11;44.16;96929.13;10369838;28;20457;-73
2023/04/08 05:26:08;;;;;;;2.08;1.40;;;;;;;19.12;44.24;96933.41;10364250;28;20053;-73
2023/04/08 05:31:27;;;;;;;2.85;1.60;;;;;;;19.11;44.42;96939.91;10366317;28;20052;-73
2023/04/08 05:36:53;;;;;;;3.50;1.60;;;;;;;19.12;44.47;96943.41;10360343;28;20049;-74
2023/04/08 05:42:12;;;;;;;3.08;1.50;;;;;;;19.12;44.57;96957.69;10389161;28;20092;-74
2023/04/08 05:47:32;;;;;;;1.92;1.30;;;;;;;19.11;44.89;96947.22;10373834;28;20042;-74
2023/04/08 05:52:51;;;;;;;1.45;1.35;;;;;;;19.10;44.92;96959.13;10359977;28;20080;-74
2023/04/08 05:58:11;;;;;;;2.10;1.48;;;;;;;19.10;44.93;96962.63;10387911;28;20050;-74
2023/04/08 06:03:30;;;;;;;5.82;1.88;;;;;;;19.11;45.07;96966.09;10388025;28;20398;-74
2023/04/08 06:08:50;;;;;;;1.50;1.40;;;;;;;19.13;44.96;96974.69;10359715;28;20046;-74
2023/04/08 06:14:09;;;;;;;1.73;1.60;;;;;;;19.14;45.07;96974.38;10387261;28;20483;-74
2023/04/08 06:19:29;;;;;;;1.40;1.30;;;;;;;19.16;45.16;96980.25;10372656;28;20053;-74
2023/04/08 06:24:48;;;;;;;1.73;1.27;;;;;;;19.17;44.92;96981.06;10371746;28;20038;-74
2023/04/08 06:30:08;;;;;;;1.40;1.30;;;;;;;19.20;44.79;96985.03;10360283;28;20058;-74
2023/04/08 06:35:27;;;;;;;3.63;1.50;;;;;;;19.21;44.81;96989.31;10358705;28;20046;-74
2023/04/08 06:40:47;;;;;;;1.45;1.35;;;;;;;19.21;44.79;96987.44;10386790;28;20041;-75
2023/04/08 06:46:06;;;;;;;3.08;1.23;;;;;;;19.22;44.61;96993.63;10355583;28;20049;-75
2023/04/08 06:51:27;;;;;;;3.83;1.00;;;;;;;19.21;44.81;96992.81;10372196;28;20038;-74
2023/04/08 06:56:46;;;;;;;1.52;1.25;;;;;;;19.24;44.77;97007.59;10355399;28;20038;-75
2023/04/08 07:02:06;;;;;;;2.28;1.20;;;;;;;19.26;44.46;97010.78;10362023;28;20041;-74
2023/04/08 07:07:25;;;;;;;2.50;1.27;;;;;;;19.28;44.71;97013.94;10357114;28;20045;-75
2023/04/08 07:12:45;;;;;;;1.20;1.02;;;;;;;19.31;44.81;97024.91;10348650;28;20050;-75
2023/04/08 07:18:04;;;;;;;2.65;1.33;;;;;;;19.33;45.02;97030.81;10345847;28;20042;-74
2023/04/08 07:23:24;;;;;;;1.27;1.10;;;;;;;19.35;45.12;97028.56;10346805;28;20046;-74
2023/04/08 07:28:43;;;;;;;1.77;1.30;;;;;;;19.40;45.10;97030.31;10328797;28;20050;-73
2023/04/08 07:34:03;;;;;;;1.20;1.10;;;;;;;19.46;45.25;97037.16;10365205;28;20486;-74
2023/04/08 07:39:23;;;;;;;1.60;1.30;;;;;;;19.50;45.32;97038.13;10365011;28;20049;-74
2023/04/08 07:44:43;;;;;;;1.20;0.90;;;;;;;19.56;45.06;97044.16;10393667;28;20442;-73
2023/04/08 07:50:03;;;;;;;2.00;1.20;;;;;;;19.59;45.06;97051.63;10378540;28;20049;-73
2023/04/08 07:55:22;;;;;;;1.67;1.05;;;;;;;19.62;44.87;97061.81;10378100;28;20483;-73
2023/04/08 08:00:42;;;;;;;1.10;1.00;;;;;;;19.64;44.96;97067.69;10377630;28;20038;-73
2023/04/08 08:06:01;;;;;;;1.05;1.02;;;;;;;19.67;44.92;97074.38;10391869;28;20042;-73
2023/04/08 08:11:21;;;;;;;1.27;0.98;;;;;;;19.71;45.08;97078.03;10377458;28;20038;-73
2023/04/08 08:16:41;;;;;;;3.53;1.10;;;;;;;19.74;45.05;97080.13;10374716;28;20048;-72
2023/04/08 08:22:00;;;;;;;1.88;1.10;;;;;;;19.78;45.28;97083.78;10376956;28;20045;-72
2023/04/08 08:27:20;;;;;;;2.35;1.00;;;;;;;19.82;45.29;97092.84;10370361;28;20149;-72
2023/04/08 08:32:39;;;;;;;1.60;1.10;;;;;;;19.85;45.45;97091.41;10391320;28;20046;-73
2023/04/08 08:37:58;;;;;;;1.05;0.90;;;;;;;19.87;45.32;97094.59;10375372;28;20387;-73
2023/04/08 08:43:19;;;;;;;1.45;1.20;;;;;;;19.92;45.58;97107.94;10362162;28;20053;-73
2023/04/08 08:48:39;;;;;;;1.20;1.00;;;;;;;19.94;45.76;97120.03;10375979;28;20096;-73
2023/04/08 08:54:03;;;;;;;1.70;1.10;;;;;;;19.98;46.15;97124.81;10375823;28;20096;-73
2023/04/08 08:59:22;;;;;;;2.25;0.90;;;;;;;20.00;46.24;97120.66;10375240;28;20042;-74
2023/04/08 09:04:55;;;;;;;43.40;10.32;;;;;;;20.02;46.16;97128.47;10361419;28;20304;-73
2023/04/08 09:10:15;;;;;;;50.30;19.88;;;;;;;19.75;39.08;97138.47;10375197;28;20515;-73
2023/04/08 09:15:34;;;;;;;32.38;14.63;;;;;;;18.60;36.14;97146.47;10374598;28;20513;-72
2023/04/08 09:20:54;;;;;;;36.72;13.52;;;;;;;18.34;38.10;97143.63;10374538;28;20080;-73
2023/04/08 09:26:16;;;;;;;32.45;14.23;;;;;;;18.82;37.42;97158.34;10373025;28;20045;-77
2023/04/08 09:31:39;;;;;;;53.95;20.73;;;;;;;18.74;36.94;97157.97;10374073;28;20053;-72
2023/04/08 09:36:59;;;;;;;41.67;15.07;;;;;;;19.15;39.86;97167.72;10374550;28;20042;-72
2023/04/08 09:42:20;;;;;;;59.00;20.00;;;;;;;19.42;40.49;97170.50;10374016;28;20042;-73
2023/04/08 09:48:09;;;;;;;46.35;15.50;;;;;;;19.52;39.41;97164.78;10359454;28;20046;-73
2023/04/08 09:53:33;;;;;;;30.95;12.00;;;;;;;19.61;40.37;97168.31;10387928;28;20068;-73
2023/04/08 09:58:58;;;;;;;22.08;10.25;;;;;;;19.72;39.82;97179.66;10358574;28;20053;-73
2023/04/08 10:04:20;;;;;;;26.58;11.30;;;;;;;19.76;41.33;97180.63;10387355;28;20038;-72
2023/04/08 10:09:42;;;;;;;22.77;9.63;;;;;;;19.82;41.62;97181.28;10372722;28;20113;-73
2023/04/08 10:15:26;;;;;;;21.60;9.68;;;;;;;19.86;42.28;97185.72;10362887;28;20095;-73
2023/04/08 10:20:46;;;;;;;17.63;8.32;;;;;;;19.89;42.62;97184.28;10352655;28;20045;-73
2023/04/08 10:26:29;;;;;;;13.70;7.10;;;;;;;19.86;40.17;97183.00;10371307;28;20041;-73
2023/04/08 10:31:50;;;;;;;11.35;5.93;;;;;;;19.78;39.13;97183.81;10371778;28;20052;-73
2023/04/08 10:37:09;;;;;;;13.32;6.97;;;;;;;19.81;41.09;97190.47;10371951;28;20053;-73
2023/04/08 10:42:29;;;;;;;14.57;6.60;;;;;;;19.87;41.42;97190.00;10373284;28;20065;-73
2023/04/08 10:47:49;;;;;;;12.70;6.57;;;;;;;19.93;42.07;97190.66;10386298;28;20042;-73
2023/04/08 10:53:10;;;;;;;14.57;6.28;;;;;;;19.98;42.70;97187.78;10371296;28;20091;-74
2023/04/08 10:58:30;;;;;;;11.50;6.22;;;;;;;20.04;43.74;97191.16;10371551;28;20068;-73
2023/04/08 11:03:50;;;;;;;11.13;5.50;;;;;;;20.07;44.45;97195.91;10376643;28;20042;-74
2023/04/08 11:09:10;;;;;;;13.45;5.80;;;;;;;20.12;45.61;97199.25;10394251;28;20079;-73
2023/04/08 11:14:30;;;;;;;12.30;5.25;;;;;;;20.16;45.96;97196.72;10366849;28;20046;-75
2023/04/08 11:19:51;;;;;;;37.33;12.85;;;;;;;20.17;47.27;97208.31;10407295;28;20038;-76
2023/04/08 11:25:11;;;;;;;32.47;12.30;;;;;;;20.18;47.63;97213.41;10379776;28;20405;-74
2023/04/08 11:30:32;;;;;;;34.85;11.75;;;;;;;20.20;48.28;97219.31;10366343;28;20495;-75
2023/04/08 11:35:51;;;;;;;35.08;11.70;;;;;;;20.24;48.74;97217.56;10369122;28;20050;-73
2023/04/08 11:41:11;;;;;;;32.95;11.40;;;;;;;20.30;49.38;97221.69;10364513;28;20041;-72
2023/04/08 11:46:31;;;;;;;29.38;10.57;;;;;;;20.34;49.26;97225.34;10378117;28;20096;-72
2023/04/08 11:51:58;;;;;;;27.17;10.25;;;;;;;20.38;49.55;97228.22;10382744;28;20049;-76
2023/04/08 11:57:28;;;;;;;26.95;9.65;;;;;;;20.38;50.24;97228.22;10378951;28;20046;-76
2023/04/08 12:02:48;;;;;;;29.00;9.88;;;;;;;20.42;50.25;97225.66;10377965;28;20038;-77
2023/04/08 12:08:08;;;;;;;24.08;8.82;;;;;;;20.43;50.57;97227.28;10337835;28;20096;-74
2023/04/08 12:13:27;;;;;;;23.38;8.13;;;;;;;20.42;50.15;97229.16;10364812;28;20050;-76
2023/04/08 12:18:47;;;;;;;20.40;7.30;;;;;;;20.42;49.68;97236.50;10379401;28;20042;-76
2023/04/08 12:24:07;;;;;;;19.33;7.47;;;;;;;20.41;49.62;97237.63;10352283;28;20103;-76
2023/04/08 12:29:26;;;;;;;21.90;7.57;;;;;;;20.42;49.54;97239.97;10340331;28;20049;-75
2023/04/08 12:34:46;;;;;;;17.10;6.68;;;;;;;20.42;49.27;97247.31;10378389;28;20056;-76
2023/04/08 12:40:07;;;;;;;18.67;6.03;;;;;;;20.41;48.98;97243.03;10395750;28;20048;-78
2023/04/08 12:45:27;;;;;;;16.08;6.18;;;;;;;20.41;48.71;97248.44;10351682;28;20050;-78
2023/04/08 12:50:47;;;;;;;14.68;6.03;;;;;;;20.41;48.43;97251.16;10336950;28;20381;-76
2023/04/08 12:56:07;;;;;;;14.40;6.32;;;;;;;20.40;48.22;97244.13;10330043;28;20499;-74
2023/04/08 13:01:26;;;;;;;15.30;5.55;;;;;;;20.40;47.80;97241.44;10322311;28;20038;-74
2023/04/08 13:06:46;;;;;;;12.93;5.22;;;;;;;20.40;47.75;97242.22;10349362;28;20042;-74
2023/04/08 13:12:05;;;;;;;12.38;5.35;;;;;;;20.40;47.43;97247.63;10348212;28;20053;-73
2023/04/08 13:17:25;;;;;;;13.93;5.32;;;;;;;20.41;47.58;97246.53;10348020;28;20050;-74
2023/04/08 13:22:44;;;;;;;10.18;4.80;;;;;;;20.40;47.37;97242.22;10320188;28;20475;-73
2023/04/08 13:28:03;;;;;;;8.32;4.60;;;;;;;20.42;47.10;97244.59;10326924;28;20061;-73
2023/04/08 13:33:23;;;;;;;11.38;5.53;;;;;;;20.43;46.81;97251.63;10345794;28;20063;-73
2023/04/08 13:38:42;;;;;;;15.68;6.63;;;;;;;20.43;46.51;97252.41;10329696;28;20057;-73
2023/04/08 13:44:01;;;;;;;14.52;5.28;;;;;;;20.44;46.44;97250.50;10303245;28;20369;-73
2023/04/08 13:49:21;;;;;;;13.70;5.25;;;;;;;20.44;46.47;97245.88;10316493;28;20070;-73
2023/04/08 13:54:41;;;;;;;12.98;5.03;;;;;;;20.43;46.39;97249.72;10319159;28;20049;-73
2023/04/08 14:00:00;;;;;;;12.95;5.40;;;;;;;20.43;46.47;97246.22;10318892;28;20053;-73
2023/04/08 14:05:20;;;;;;;11.77;5.40;;;;;;;20.44;46.42;97253.19;10332262;28;20384;-73
2023/04/08 14:10:40;;;;;;;10.70;4.22;;;;;;;20.43;46.29;97257.03;10318864;28;20043;-73
2023/04/08 14:16:01;;;;;;;9.77;4.40;;;;;;;20.40;43.72;97252.25;10346224;28;20042;-73
2023/04/08 14:21:21;;;;;;;7.80;4.82;;;;;;;20.38;45.46;97255.28;10318632;28;20047;-73
2023/04/08 14:26:40;;;;;;;7.68;4.47;;;;;;;20.35;42.70;97255.91;10329265;28;20059;-73
2023/04/08 14:32:00;;;;;;;10.95;5.22;;;;;;;20.34;45.13;97255.09;10331796;28;20526;-73
2023/04/08 14:37:20;;;;;;;9.20;4.72;;;;;;;20.34;44.92;97262.44;10317332;28;20097;-72
2023/04/08 14:42:39;;;;;;;8.43;4.40;;;;;;;20.34;45.07;97260.50;10317907;28;20446;-72
2023/04/08 14:47:59;;;;;;;7.82;4.38;;;;;;;20.32;45.07;97262.75;10346769;28;20113;-72
2023/04/08 14:53:18;;;;;;;7.68;4.03;;;;;;;20.33;45.21;97263.56;10345376;28;20046;-72
2023/04/08 14:58:37;;;;;;;8.05;4.47;;;;;;;20.31;45.44;97266.59;10331207;28;20054;-72
2023/04/08 15:03:57;;;;;;;8.38;4.38;;;;;;;20.32;45.41;97270.06;10330919;28;20042;-72
2023/04/08 15:09:16;;;;;;;6.22;3.67;;;;;;;20.31;45.56;97274.69;10345554;28;20088;-72
2023/04/08 15:14:35;;;;;;;7.22;4.30;;;;;;;20.29;45.77;97276.94;10317288;28;20046;-72
2023/04/08 15:19:55;;;;;;;5.72;3.45;;;;;;;20.28;45.64;97280.72;10330693;28;20483;-72
2023/04/08 15:25:14;;;;;;;5.82;3.90;;;;;;;20.29;45.64;97279.63;10330812;28;20051;-72
2023/04/08 15:30:34;;;;;;;5.63;3.63;;;;;;;20.29;45.44;97284.25;10318005;28;20046;-73
2023/04/08 15:35:56;;;;;;;5.38;3.72;;;;;;;20.27;45.62;97287.28;10331184;28;20042;-73
2023/04/08 15:41:20;;;;;;;8.00;3.80;;;;;;;20.27;45.77;97292.69;10352791;28;20053;-72
2023/04/08 15:46:41;;;;;;;6.60;5.60;;;;;;;20.00;38.82;97303.78;10344008;28;20061;-73
2023/04/08 15:52:00;;;;;;;4.80;3.75;;;;;;;19.91;40.56;97301.81;10377851;28;20046;-73
2023/04/08 15:57:25;;;;;;;8.85;4.93;;;;;;;20.01;43.82;97303.44;10377817;28;20046;-72
2023/04/08 16:02:45;;;;;;;5.68;4.00;;;;;;;20.07;43.43;97304.09;10376676;28;20045;-72
2023/04/08 16:08:05;;;;;;;5.03;3.80;;;;;;;20.10;43.47;97317.78;10373972;28;20265;-72
2023/04/08 16:13:24;;;;;;;8.25;4.93;;;;;;;20.11;43.66;97322.09;10359883;28;20495;-72
2023/04/08 16:18:44;;;;;;;5.20;3.75;;;;;;;20.12;43.83;97331.00;10375688;28;20041;-72
2023/04/08 16:24:04;;;;;;;5.93;4.00;;;;;;;20.11;43.85;97326.69;10376858;28;20050;-72
2023/04/08 16:29:24;;;;;;;4.95;3.75;;;;;;;20.11;44.07;97326.69;10353057;28;20057;-72
2023/04/08 16:34:44;;;;;;;6.00;3.40;;;;;;;20.08;44.05;97333.53;10376553;28;20042;-73
2023/04/08 16:40:05;;;;;;;6.40;3.90;;;;;;;20.08;44.06;97338.16;10391416;28;20077;-72
2023/04/08 16:45:28;;;;;;;5.32;3.83;;;;;;;20.08;44.39;97343.56;10376885;28;20052;-73
2023/04/08 16:50:47;;;;;;;8.65;5.30;;;;;;;19.98;41.35;97341.16;10376052;28;20088;-78
2023/04/08 16:56:15;;;;;;;8.13;3.80;;;;;;;20.00;43.91;97352.44;10375851;28;20065;-73
2023/04/08 17:01:35;;;;;;;5.68;4.10;;;;;;;20.00;44.22;97363.28;10389775;28;20483;-73
2023/04/08 17:06:56;;;;;;;4.97;3.72;;;;;;;20.00;44.39;97363.28;10381060;28;20445;-72
2023/04/08 17:12:15;;;;;;;4.88;3.38;;;;;;;19.98;45.69;97371.69;10364302;28;20063;-72
2023/04/08 17:17:35;;;;;;;6.28;5.63;;;;;;;19.97;43.14;97386.31;10369666;28;20041;-73
2023/04/08 17:22:55;;;;;;;6.78;3.92;;;;;;;19.97;44.79;97380.09;10349460;28;20049;-73
2023/04/08 17:28:15;;;;;;;4.82;3.88;;;;;;;19.94;44.91;97387.75;10379008;28;20085;-73
2023/04/08 17:33:34;;;;;;;5.30;3.97;;;;;;;19.97;45.36;97385.53;10371349;28;20046;-74
2023/04/08 17:38:54;;;;;;;4.15;3.58;;;;;;;19.98;45.36;97393.31;10362399;28;20046;-73
2023/04/08 17:44:13;;;;;;;5.70;3.60;;;;;;;19.95;45.32;97396.63;10397566;28;20041;-74
2023/04/08 17:49:33;;;;;;;3.47;3.17;;;;;;;19.94;45.71;97401.25;10357700;28;20042;-74
2023/04/08 17:54:52;;;;;;;4.75;3.45;;;;;;;19.93;45.73;97410.50;10382428;28;20049;-73
2023/04/08 18:00:12;;;;;;;4.28;3.40;;;;;;;19.92;45.56;97410.81;10388128;28;20409;-73
2023/04/08 18:05:33;;;;;;;8.75;3.60;;;;;;;19.91;45.99;97415.38;10374732;28;20042;-74
2023/04/08 18:10:52;;;;;;;11.20;3.60;;;;;;;19.92;46.01;97429.72;10387937;28;20057;-72
2023/04/08 18:16:16;;;;;;;6.00;3.50;;;;;;;19.91;46.39;97431.63;10399296;28;20050;-75
2023/04/08 18:21:35;;;;;;;7.03;3.10;;;;;;;19.91;47.01;97447.06;10359129;28;20038;-75
2023/04/08 18:26:56;;;;;;;7.85;3.25;;;;;;;19.90;47.66;97451.66;10376029;28;20058;-74
2023/04/08 18:32:16;;;;;;;10.75;4.68;;;;;;;19.91;47.63;97453.25;10384608;28;20046;-73
2023/04/08 18:37:35;;;;;;;4.95;3.00;;;;;;;19.90;47.49;97451.66;10401266;28;20038;-73
2023/04/08 18:42:55;;;;;;;6.55;3.20;;;;;;;19.92;47.28;97467.59;10386269;28;20045;-74
2023/04/08 18:48:15;;;;;;;7.82;3.88;;;;;;;19.90;47.49;97467.88;10372550;28;20046;-73
2023/04/08 18:53:35;;;;;;;4.97;3.67;;;;;;;19.88;47.85;97458.50;10373675;28;20057;-74
2023/04/08 18:58:54;;;;;;;5.85;3.60;;;;;;;19.87;48.03;97470.41;10371954;28;20042;-74
2023/04/08 19:04:14;;;;;;;7.35;3.90;;;;;;;19.86;48.45;97480.44;10371522;28;20406;-73
2023/04/08 19:09:34;;;;;;;7.10;3.85;;;;;;;19.86;48.51;97472.31;10357976;28;20046;-73
2023/04/08 19:14:54;;;;;;;6.80;3.60;;;;;;;19.84;48.99;97471.84;10377521;28;20050;-72
2023/04/08 19:20:14;;;;;;;7.50;3.92;;;;;;;19.85;48.83;97486.94;10366522;28;20042;-73
2023/04/08 19:25:34;;;;;;;7.28;3.80;;;;;;;19.83;48.92;97497.25;10383516;28;20044;-73
2023/04/08 19:30:54;;;;;;;11.68;3.83;;;;;;;19.84;49.35;97501.59;10373892;28;20061;-73
2023/04/08 19:36:13;;;;;;;6.55;3.50;;;;;;;19.83;49.39;97485.66;10382704;28;20038;-72
2023/04/08 19:41:33;;;;;;;8.40;3.70;;;;;;;19.81;49.35;97482.47;10382676;28;20042;-73
2023/04/08 19:46:53;;;;;;;9.15;3.50;;;;;;;19.80;49.30;97499.78;10365313;28;20414;-74
2023/04/08 19:52:12;;;;;;;6.07;3.25;;;;;;;19.79;49.51;97496.28;10378646;28;20049;-74
2023/04/08 19:57:32;;;;;;;6.55;3.33;;;;;;;19.80;49.28;97505.19;10364883;28;20049;-74
2023/04/08 20:02:51;;;;;;;6.30;3.70;;;;;;;19.78;49.58;97512.81;10391860;28;20041;-75
2023/04/08 20:08:11;;;;;;;5.68;3.72;;;;;;;19.77;49.49;97511.22;10392577;28;20046;-72
2023/04/08 20:13:30;;;;;;;6.50;3.50;;;;;;;19.76;49.31;97510.44;10377754;28;20048;-72
2023/04/08 20:18:50;;;;;;;7.93;3.55;;;;;;;19.74;49.39;97512.66;10391487;28;20100;-75
2023/04/08 20:24:10;;;;;;;7.10;3.40;;;;;;;19.74;49.64;97523.47;10377107;28;20093;-72
2023/04/08 20:29:31;;;;;;;5.45;3.35;;;;;;;19.74;49.46;97526.97;10366905;28;20077;-73
2023/04/08 20:34:50;;;;;;;6.78;3.60;;;;;;;19.74;49.60;97524.25;10390203;28;20049;-74
2023/04/08 20:40:11;;;;;;;9.93;3.70;;;;;;;19.73;49.66;97524.56;10349399;28;20414;-74
2023/04/08 20:45:30;;;;;;;8.02;3.58;;;;;;;19.72;49.72;97520.28;10377833;28;20398;-73
2023/04/08 20:50:50;;;;;;;9.82;3.60;;;;;;;19.70;49.47;97522.47;10375857;28;20046;-72
2023/04/08 20:56:09;;;;;;;10.75;4.30;;;;;;;19.68;49.41;97528.16;10375748;28;20509;-73
2023/04/08 21:01:29;;;;;;;10.02;4.53;;;;;;;19.68;49.70;97527.34;10390309;28;20042;-73
2023/04/08 21:06:49;;;;;;;11.70;4.63;;;;;;;19.70;49.38;97530.56;10361536;28;20042;-73
2023/04/08 21:12:09;;;;;;;13.27;5.15;;;;;;;19.70;49.56;97530.56;10366148;28;20058;-73
2023/04/08 21:17:29;;;;;;;9.60;4.55;;;;;;;19.68;49.57;97527.34;10361144;28;20045;-73
2023/04/08 21:22:49;;;;;;;11.32;4.75;;;;;;;19.66;49.88;97527.66;10374760;28;20085;-73
2023/04/08 21:28:09;;;;;;;13.23;5.15;;;;;;;19.67;49.56;97523.06;10368734;28;20061;-73
2023/04/08 21:33:28;;;;;;;14.38;5.22;;;;;;;19.67;49.52;97525.75;10360663;28;20446;-73
2023/04/08 21:38:48;;;;;;;11.85;5.15;;;;;;;19.66;49.46;97532.25;10376126;28;20497;-73
2023/04/08 21:44:08;;;;;;;14.27;5.47;;;;;;;19.64;49.38;97534.47;10360890;28;20064;-73
2023/04/08 21:49:31;;;;;;;12.93;5.78;;;;;;;19.63;49.27;97541.00;10361474;28;20482;-73
2023/04/08 21:54:51;;;;;;;11.98;5.22;;;;;;;19.63;49.51;97532.88;10389749;28;20049;-73
2023/04/08 22:00:12;;;;;;;11.93;5.78;;;;;;;19.62;49.73;97537.50;10360113;28;20042;-73
2023/04/08 22:05:34;;;;;;;13.40;5.45;;;;;;;19.61;50.01;97525.09;10389058;28;20046;-73
2023/04/08 22:10:54;;;;;;;12.95;5.50;;;;;;;19.60;50.05;97525.38;10373988;28;20046;-74
2023/04/08 22:16:14;;;;;;;12.25;5.20;;;;;;;19.60;49.96;97522.69;10373933;28;20108;-73
2023/04/08 22:21:33;;;;;;;11.30;5.45;;;;;;;19.59;49.98;97518.41;10388032;28;20049;-73
2023/04/08 22:26:53;;;;;;;7.45;4.47;;;;;;;19.58;49.73;97514.88;10369534;28;20062;-74
2023/04/08 22:32:12;;;;;;;9.35;4.57;;;;;;;19.56;49.63;97507.09;10373296;28;20383;-73
2023/04/08 22:37:32;;;;;;;9.07;4.82;;;;;;;19.55;49.44;97500.06;10373005;28;20057;-73
2023/04/08 22:42:52;;;;;;;9.32;4.72;;;;;;;19.53;49.46;97504.19;10372067;28;20111;-73
2023/04/08 22:48:12;;;;;;;9.85;4.70;;;;;;;19.52;49.21;97506.09;10374406;28;20046;-73
2023/04/08 22:53:31;;;;;;;9.52;4.53;;;;;;;19.52;49.22;97514.22;10387454;28;20049;-73
2023/04/08 22:58:51;;;;;;;7.43;4.45;;;;;;;19.51;49.09;97520.72;10390500;28;20042;-73
2023/04/08 23:04:10;;;;;;;8.32;4.85;;;;;;;19.49;48.97;97517.53;10367209;28;20096;-73
2023/04/08 23:09:30;;;;;;;8.93;4.45;;;;;;;19.49;48.82;97517.53;10379469;28;20042;-73
2023/04/08 23:14:49;;;;;;;7.80;4.10;;;;;;;19.48;48.73;97521.34;10379240;28;20054;-73
2023/04/08 23:20:09;;;;;;;7.82;4.30;;;;;;;19.46;48.82;97517.31;10379840;28;20046;-73
2023/04/08 23:25:29;;;;;;;7.22;4.38;;;;;;;19.45;48.89;97513.84;10394063;28;20104;-73
2023/04/08 23:30:48;;;;;;;7.15;4.00;;;;;;;19.43;48.82;97516.03;10351531;28;20054;-73
2023/04/08 23:36:09;;;;;;;7.47;4.22;;;;;;;19.43;48.82;97509.84;10393570;28;20167;-73
2023/04/08 23:41:28;;;;;;;6.68;4.18;;;;;;;19.42;48.61;97514.44;10380259;28;20042;-73
2023/04/08 23:46:47;;;;;;;8.02;3.85;;;;;;;19.41;48.68;97520.16;10351088;28;20053;-73
2023/04/08 23:52:07;;;;;;;9.25;4.57;;;;;;;19.39;48.62;97523.16;10377917;28;20052;-73
2023/04/08 23:57:26;;;;;;;7.57;4.18;;;;;;;19.39;48.43;97523.16;10381396;28;20072;-73
